createdAt,value
2023-03-02T00:01:56.224Z,101193.19
2023-03-02T00:04:33.811Z,101190.13
2023-03-02T00:07:07.976Z,101188.66
2023-03-02T00:09:37.791Z,101186.78
2023-03-02T00:12:07.719Z,101186.59
2023-03-02T00:14:35.694Z,101185.34
2023-03-02T00:17:04.809Z,101189.25
2023-03-02T00:19:32.417Z,101184.63
2023-03-02T00:22:00.370Z,101179.91
2023-03-02T00:24:28.331Z,101174.97
2023-03-02T00:26:56.303Z,101176.03
2023-03-02T00:29:26.424Z,101184.63
2023-03-02T00:31:55.286Z,101184.13
2023-03-02T00:34:23.316Z,101181.59
2023-03-02T00:36:51.058Z,101179.06
2023-03-02T00:39:20.269Z,101172.56
2023-03-02T00:41:48.926Z,101183.19
2023-03-02T00:44:17.827Z,101178.66
2023-03-02T00:46:46.060Z,101175.03
2023-03-02T00:49:14.067Z,101179.59
2023-03-02T00:51:41.955Z,101177.59
2023-03-02T00:54:10.325Z,101178.41
2023-03-02T00:56:38.215Z,101178.41
2023-03-02T00:59:28.727Z,101173.56
2023-03-02T01:02:32.420Z,101170.31
2023-03-02T01:05:00.343Z,101178.22
2023-03-02T01:07:28.603Z,101166.25
2023-03-02T01:09:56.926Z,101162.53
2023-03-02T01:12:24.882Z,101158.31
2023-03-02T01:14:53.850Z,101156.78
2023-03-02T01:17:22.878Z,101148.88
2023-03-02T01:19:52.225Z,101155.28
2023-03-02T01:22:22.737Z,101154.53
2023-03-02T01:24:50.501Z,101152.84
2023-03-02T01:27:33.164Z,101148.09
2023-03-02T01:30:10.287Z,101145.91
2023-03-02T01:32:39.217Z,101142.28
2023-03-02T01:35:07.813Z,101137.97
2023-03-02T01:37:35.301Z,101132.59
2023-03-02T01:40:06.473Z,101139.25
2023-03-02T01:42:38.331Z,101136.38
2023-03-02T01:45:27.107Z,101138.22
2023-03-02T01:47:54.696Z,101136.06
2023-03-02T01:50:26.648Z,101126.16
2023-03-02T01:52:58.743Z,101127.09
2023-03-02T01:55:32.038Z,101125.13
2023-03-02T01:58:01.136Z,101119.53
2023-03-02T02:00:32.018Z,101126.97
2023-03-02T02:03:14.972Z,101119.44
2023-03-02T02:05:46.813Z,101119.34
2023-03-02T02:08:15.350Z,101127.09
2023-03-02T02:10:43.530Z,101109.91
2023-03-02T02:13:11.960Z,101112.31
2023-03-02T02:15:40.818Z,101111.50
2023-03-02T02:18:08.744Z,101111.50
2023-03-02T02:20:45.303Z,101114.34
2023-03-02T02:23:41.269Z,101118.00
2023-03-02T02:26:20.807Z,101117.09
2023-03-02T02:29:02.632Z,101115.47
2023-03-02T02:31:48.810Z,101119.59
2023-03-02T02:34:25.319Z,101113.75
2023-03-02T02:37:00.067Z,101114.94
2023-03-02T02:39:31.574Z,101114.03
2023-03-02T02:42:05.253Z,101114.09
2023-03-02T02:44:33.865Z,101110.56
2023-03-02T02:47:01.783Z,101106.94
2023-03-02T02:49:40.521Z,101109.16
2023-03-02T02:52:14.263Z,101106.00
2023-03-02T02:54:44.196Z,101106.06
2023-03-02T02:57:13.738Z,101108.78
2023-03-02T02:59:49.200Z,101107.09
2023-03-02T03:02:22.335Z,101105.38
2023-03-02T03:04:50.521Z,101103.16
2023-03-02T03:07:24.076Z,101101.53
2023-03-02T03:10:04.445Z,101100.28
2023-03-02T03:12:34.528Z,101097.13
2023-03-02T03:15:04.550Z,101104.38
2023-03-02T03:17:33.005Z,101106.41
2023-03-02T03:20:06.730Z,101106.31
2023-03-02T03:22:38.878Z,101107.13
2023-03-02T03:25:09.686Z,101107.91
2023-03-02T03:27:37.219Z,101117.50
2023-03-02T03:30:06.240Z,101123.03
2023-03-02T03:32:35.541Z,101122.19
2023-03-02T03:35:08.601Z,101112.44
2023-03-02T03:37:38.263Z,101114.34
2023-03-02T03:40:09.312Z,101116.28
2023-03-02T03:42:39.782Z,101116.03
2023-03-02T03:45:11.357Z,101113.56
2023-03-02T03:47:40.773Z,101114.56
2023-03-02T03:50:10.910Z,101113.34
2023-03-02T03:52:38.951Z,101120.13
2023-03-02T03:55:21.332Z,101117.44
2023-03-02T03:57:50.870Z,101108.16
2023-03-02T04:00:19.154Z,101109.44
2023-03-02T04:02:52.598Z,101105.19
2023-03-02T04:05:21.031Z,101113.03
2023-03-02T04:07:53.282Z,101111.81
2023-03-02T04:10:21.972Z,101112.56
2023-03-02T04:12:52.327Z,101111.19
2023-03-02T04:15:20.416Z,101109.47
2023-03-02T04:17:51.950Z,101113.88
2023-03-02T04:20:22.320Z,101114.81
2023-03-02T04:22:55.714Z,101113.19
2023-03-02T04:25:25.668Z,101113.72
2023-03-02T04:27:58.028Z,101123.75
2023-03-02T04:30:29.836Z,101117.06
2023-03-02T04:32:57.909Z,101121.78
2023-03-02T04:35:29.366Z,101126.19
2023-03-02T04:37:58.022Z,101122.41
2023-03-02T04:40:26.195Z,101118.19
2023-03-02T04:42:54.680Z,101117.84
2023-03-02T04:45:22.146Z,101115.81
2023-03-02T04:47:49.672Z,101125.94
2023-03-02T04:50:17.318Z,101121.75
2023-03-02T04:52:44.976Z,101124.16
2023-03-02T04:55:19.828Z,101124.47
2023-03-02T04:57:48.007Z,101126.53
2023-03-02T05:00:17.944Z,101122.00
2023-03-02T05:02:46.100Z,101121.53
2023-03-02T05:05:21.275Z,101117.16
2023-03-02T05:07:49.870Z,101118.44
2023-03-02T05:10:19.381Z,101111.53
2023-03-02T05:13:14.690Z,101123.22
2023-03-02T05:15:43.549Z,101120.56
2023-03-02T05:18:12.466Z,101121.94
2023-03-02T05:20:40.455Z,101123.59
2023-03-02T05:23:10.144Z,101131.59
2023-03-02T05:25:41.944Z,101125.41
2023-03-02T05:28:09.874Z,101123.78
2023-03-02T05:30:37.867Z,101128.50
2023-03-02T05:33:05.846Z,101132.63
2023-03-02T05:35:34.222Z,101135.41
2023-03-02T05:38:02.255Z,101137.75
2023-03-02T05:40:29.845Z,101143.59
2023-03-02T05:42:57.505Z,101131.19
2023-03-02T05:45:32.730Z,101138.09
2023-03-02T05:48:01.025Z,101149.09
2023-03-02T05:50:29.132Z,101149.16
2023-03-02T05:52:57.146Z,101143.47
2023-03-02T05:55:24.712Z,101151.34
2023-03-02T05:57:53.194Z,101158.13
2023-03-02T06:00:21.555Z,101150.50
2023-03-02T06:02:49.539Z,101154.44
2023-03-02T06:05:20.038Z,101154.50
2023-03-02T06:07:48.038Z,101149.66
2023-03-02T06:10:16.048Z,101161.16
2023-03-02T06:12:44.074Z,101158.97
2023-03-02T06:15:12.182Z,101158.59
2023-03-02T06:17:40.197Z,101155.31
2023-03-02T06:20:11.050Z,101150.66
2023-03-02T06:22:45.326Z,101148.03
2023-03-02T06:25:17.200Z,101148.09
2023-03-02T06:27:46.114Z,101156.22
2023-03-02T06:30:16.143Z,101156.94
2023-03-02T06:32:44.191Z,101149.34
2023-03-02T06:35:12.714Z,101154.94
2023-03-02T06:37:43.640Z,101148.41
2023-03-02T06:40:13.850Z,101159.84
2023-03-02T06:42:42.948Z,101166.06
2023-03-02T06:45:11.550Z,101165.50
2023-03-02T06:47:40.253Z,101162.25
2023-03-02T06:50:08.947Z,101162.78
2023-03-02T06:52:36.911Z,101160.69
2023-03-02T06:55:05.321Z,101168.59
2023-03-02T06:57:36.255Z,101172.44
2023-03-02T07:00:17.799Z,101167.81
2023-03-02T07:02:45.519Z,101172.22
2023-03-02T07:05:13.507Z,101181.75
2023-03-02T07:07:41.831Z,101189.38
2023-03-02T07:10:12.237Z,101173.63
2023-03-02T07:12:41.870Z,101181.22
2023-03-02T07:15:12.323Z,101175.00
2023-03-02T07:17:42.310Z,101180.78
2023-03-02T07:20:11.363Z,101184.19
2023-03-02T07:22:40.067Z,101180.22
2023-03-02T07:25:08.616Z,101183.34
2023-03-02T07:27:37.112Z,101173.00
2023-03-02T07:30:06.728Z,101181.09
2023-03-02T07:32:34.794Z,101183.22
2023-03-02T07:35:03.199Z,101188.81
2023-03-02T07:37:30.755Z,101193.31
2023-03-02T07:40:00.692Z,101187.88
2023-03-02T07:42:29.029Z,101196.31
2023-03-02T07:44:59.517Z,101189.38
2023-03-02T07:47:33.268Z,101195.91
2023-03-02T07:50:01.648Z,101188.97
2023-03-02T07:52:30.890Z,101200.09
2023-03-02T07:54:58.940Z,101203.28
2023-03-02T07:57:26.984Z,101202.59
2023-03-02T07:59:54.920Z,101197.28
2023-03-02T08:02:25.426Z,101200.94
2023-03-02T08:04:53.609Z,101196.47
2023-03-02T08:07:21.602Z,101194.69
2023-03-02T08:09:49.275Z,101197.69
2023-03-02T08:12:31.156Z,101194.75
2023-03-02T08:14:59.189Z,101199.03
2023-03-02T08:17:26.756Z,101192.09
2023-03-02T08:19:54.875Z,101185.63
2023-03-02T08:22:22.515Z,101179.56
2023-03-02T08:24:50.354Z,101180.09
2023-03-02T08:27:18.620Z,101174.69
2023-03-02T08:29:46.177Z,101171.06
2023-03-02T08:32:14.209Z,101171.97
2023-03-02T08:34:43.116Z,101171.88
2023-03-02T08:37:11.794Z,101171.06
2023-03-02T08:39:39.819Z,101172.94
2023-03-02T08:42:08.273Z,101174.84
2023-03-02T08:44:36.221Z,101179.00
2023-03-02T08:47:04.390Z,101171.16
2023-03-02T08:49:31.967Z,101178.00
2023-03-02T08:52:00.769Z,101171.22
2023-03-02T08:54:28.868Z,101174.63
2023-03-02T08:56:57.326Z,101177.31
2023-03-02T08:59:25.285Z,101179.69
2023-03-02T09:01:53.205Z,101179.19
2023-03-02T09:04:21.237Z,101171.75
2023-03-02T09:06:49.148Z,101173.50
2023-03-02T09:09:16.632Z,101171.16
2023-03-02T09:11:45.040Z,101165.88
2023-03-02T09:14:13.240Z,101166.06
2023-03-02T09:16:41.317Z,101175.13
2023-03-02T09:19:10.820Z,101171.56
2023-03-02T09:21:38.484Z,101178.75
2023-03-02T09:24:06.688Z,101173.25
2023-03-02T09:26:35.022Z,101175.41
2023-03-02T09:29:03.181Z,101176.13
2023-03-02T09:31:31.417Z,101167.38
2023-03-02T09:33:59.630Z,101177.47
2023-03-02T09:36:28.861Z,101183.19
2023-03-02T09:38:56.420Z,101185.66
2023-03-02T09:41:38.244Z,101189.28
2023-03-02T09:44:24.442Z,101188.44
2023-03-02T09:47:36.141Z,101190.34
2023-03-02T09:50:31.310Z,101192.72
2023-03-02T09:53:30.579Z,101184.09
2023-03-02T09:56:02.597Z,101191.19
2023-03-02T09:58:36.349Z,101191.38
2023-03-02T10:01:06.509Z,101189.59
2023-03-02T10:03:41.820Z,101190.44
2023-03-02T10:06:09.854Z,101188.91
2023-03-02T10:08:40.849Z,101196.22
2023-03-02T10:11:23.144Z,101203.16
2023-03-02T10:14:13.623Z,101208.31
2023-03-02T10:16:49.409Z,101200.47
2023-03-02T10:19:41.730Z,101203.44
2023-03-02T10:22:16.130Z,101209.19
2023-03-02T10:24:55.867Z,101213.22
2023-03-02T10:27:42.638Z,101207.38
2023-03-02T10:30:27.674Z,101205.47
2023-03-02T10:32:58.852Z,101203.59
2023-03-02T10:35:29.129Z,101205.34
2023-03-02T10:38:11.629Z,101203.88
2023-03-02T10:40:48.840Z,101198.91
2023-03-02T10:43:40.410Z,101203.69
2023-03-02T10:46:10.559Z,101200.13
2023-03-02T10:48:53.791Z,101203.69
2023-03-02T10:51:34.379Z,101201.25
2023-03-02T10:54:07.527Z,101195.31
2023-03-02T10:56:35.828Z,101194.19
2023-03-02T10:59:26.231Z,101196.47
2023-03-02T11:02:14.207Z,101189.34
2023-03-02T11:04:42.274Z,101192.66
2023-03-02T11:07:22.616Z,101184.91
2023-03-02T11:10:07.780Z,101191.09
2023-03-02T11:12:37.320Z,101180.97
2023-03-02T11:15:35.281Z,101189.66
2023-03-02T11:18:06.204Z,101181.56
2023-03-02T11:20:42.364Z,101183.53
2023-03-02T11:23:24.116Z,101183.75
2023-03-02T11:25:58.857Z,101181.63
2023-03-02T11:28:41.251Z,101175.66
2023-03-02T11:31:32.038Z,101179.31
2023-03-02T11:34:16.743Z,101176.69
2023-03-02T11:36:59.865Z,101182.47
2023-03-02T11:39:54.996Z,101169.34
2023-03-02T11:42:39.108Z,101174.75
2023-03-02T11:45:20.674Z,101167.06
2023-03-02T11:48:03.119Z,101171.41
2023-03-02T11:50:37.106Z,101165.47
2023-03-02T11:53:12.351Z,101168.81
2023-03-02T11:55:46.129Z,101166.06
2023-03-02T11:58:19.676Z,101158.84
2023-03-02T12:00:48.900Z,101160.22
2023-03-02T12:03:17.370Z,101161.28
2023-03-02T12:05:50.381Z,101159.28
2023-03-02T12:08:20.778Z,101158.97
2023-03-02T12:10:57.407Z,101153.91
2023-03-02T12:13:29.507Z,101149.91
2023-03-02T12:15:57.833Z,101150.53
2023-03-02T12:18:25.280Z,101145.72
2023-03-02T12:21:00.052Z,101149.19
2023-03-02T12:23:29.278Z,101140.50
2023-03-02T12:26:08.260Z,101136.84
2023-03-02T12:28:39.208Z,101141.59
2023-03-02T12:31:13.321Z,101138.34
2023-03-02T12:33:50.393Z,101135.06
2023-03-02T12:36:35.913Z,101133.63
2023-03-02T12:39:37.396Z,101127.50
2023-03-02T12:42:21.052Z,101134.28
2023-03-02T12:45:10.989Z,101130.63
2023-03-02T12:47:42.538Z,101119.31
2023-03-02T12:50:20.769Z,101121.25
2023-03-02T12:53:03.302Z,101113.88
2023-03-02T12:55:32.469Z,101113.88
2023-03-02T12:58:02.390Z,101113.56
2023-03-02T13:00:34.538Z,101117.00
2023-03-02T13:03:02.396Z,101123.66
2023-03-02T13:05:33.622Z,101110.81
2023-03-02T13:08:28.844Z,101114.53
2023-03-02T13:11:02.372Z,101109.03
2023-03-02T13:13:32.733Z,101108.34
2023-03-02T13:16:04.978Z,101110.09
2023-03-02T13:18:36.402Z,101103.38
2023-03-02T13:21:05.696Z,101104.44
2023-03-02T13:23:34.728Z,101100.97
2023-03-02T13:26:05.220Z,101105.91
2023-03-02T13:28:40.038Z,101093.22
2023-03-02T13:31:20.924Z,101094.22
2023-03-02T13:33:50.545Z,101102.06
2023-03-02T13:36:26.180Z,101098.00
2023-03-02T13:38:59.484Z,101095.94
2023-03-02T13:41:30.127Z,101094.78
2023-03-02T13:43:59.568Z,101083.13
2023-03-02T13:46:33.724Z,101083.28
2023-03-02T13:49:10.730Z,101091.81
2023-03-02T13:51:47.749Z,101086.72
2023-03-02T13:54:24.741Z,101078.53
2023-03-02T13:56:53.868Z,101077.72
2023-03-02T13:59:22.552Z,101083.75
2023-03-02T14:01:52.373Z,101085.84
2023-03-02T14:04:23.648Z,101074.16
2023-03-02T14:06:53.920Z,101072.06
2023-03-02T14:09:22.265Z,101070.19
2023-03-02T14:11:53.875Z,101069.56
2023-03-02T14:14:25.063Z,101069.53
2023-03-02T14:16:52.943Z,101074.00
2023-03-02T14:19:21.327Z,101064.38
2023-03-02T14:21:49.332Z,101059.22
2023-03-02T14:24:17.889Z,101067.97
2023-03-02T14:26:48.875Z,101057.25
2023-03-02T14:29:27.379Z,101072.38
2023-03-02T14:31:56.629Z,101060.72
2023-03-02T14:34:24.803Z,101059.63
2023-03-02T14:36:56.254Z,101060.25
2023-03-02T14:39:34.438Z,101060.56
2023-03-02T14:42:02.892Z,101049.03
2023-03-02T14:44:31.430Z,101055.88
2023-03-02T14:46:59.439Z,101044.72
2023-03-02T14:49:27.666Z,101045.19
2023-03-02T14:52:05.001Z,101042.69
2023-03-02T14:54:40.081Z,101040.66
2023-03-02T14:57:25.224Z,101042.56
2023-03-02T14:59:54.763Z,101044.88
2023-03-02T15:02:26.957Z,101041.63
2023-03-02T15:04:57.249Z,101032.06
2023-03-02T15:07:28.188Z,101031.22
2023-03-02T15:09:58.170Z,101037.44
2023-03-02T15:12:26.620Z,101034.59
2023-03-02T15:14:54.211Z,101030.72
2023-03-02T15:17:22.745Z,101032.44
2023-03-02T15:19:50.603Z,101030.88
2023-03-02T15:22:18.250Z,101034.09
2023-03-02T15:24:46.204Z,101028.78
2023-03-02T15:27:13.799Z,101035.81
2023-03-02T15:29:48.121Z,101036.34
2023-03-02T15:32:16.851Z,101028.44
2023-03-02T15:34:45.489Z,101030.81
2023-03-02T15:37:13.555Z,101034.13
2023-03-02T15:39:41.321Z,101036.41
2023-03-02T15:42:09.244Z,101028.81
2023-03-02T15:44:37.187Z,101024.94
2023-03-02T15:47:05.507Z,101022.28
2023-03-02T15:49:33.058Z,101030.81
2023-03-02T15:52:01.208Z,101023.44
2023-03-02T15:54:29.742Z,101029.47
2023-03-02T15:56:57.602Z,101037.31
2023-03-02T15:59:27.756Z,101039.44
2023-03-02T16:01:59.549Z,101041.44
2023-03-02T16:04:33.263Z,101039.78
2023-03-02T16:07:01.099Z,101040.38
2023-03-02T16:09:30.966Z,101043.13
2023-03-02T16:11:59.076Z,101037.63
2023-03-02T16:14:27.033Z,101042.41
2023-03-02T16:16:55.084Z,101042.63
2023-03-02T16:19:22.827Z,101040.22
2023-03-02T16:21:51.295Z,101044.00
2023-03-02T16:24:19.191Z,101040.44
2023-03-02T16:26:46.861Z,101043.38
2023-03-02T16:29:14.691Z,101036.66
2023-03-02T16:31:45.811Z,101043.66
2023-03-02T16:34:13.632Z,101048.44
2023-03-02T16:36:42.617Z,101042.31
2023-03-02T16:39:12.232Z,101042.97
2023-03-02T16:41:42.462Z,101049.28
2023-03-02T16:44:11.728Z,101055.50
2023-03-02T16:46:40.104Z,101050.44
2023-03-02T16:49:08.212Z,101053.28
2023-03-02T16:51:37.236Z,101048.34
2023-03-02T16:54:05.693Z,101057.91
2023-03-02T16:56:34.347Z,101050.44
2023-03-02T16:59:02.200Z,101057.06
2023-03-02T17:01:29.826Z,101047.81
2023-03-02T17:03:57.561Z,101054.31
2023-03-02T17:06:25.749Z,101057.97
2023-03-02T17:08:54.222Z,101054.81
2023-03-02T17:11:22.601Z,101049.94
2023-03-02T17:13:50.739Z,101063.69
2023-03-02T17:16:19.298Z,101061.63
2023-03-02T17:18:47.471Z,101068.00
2023-03-02T17:21:17.424Z,101062.81
2023-03-02T17:23:48.106Z,101069.66
2023-03-02T17:26:17.267Z,101073.13
2023-03-02T17:28:45.383Z,101073.41
2023-03-02T17:31:13.987Z,101075.38
2023-03-02T17:33:42.183Z,101075.47
2023-03-02T17:36:12.151Z,101081.69
2023-03-02T17:38:40.692Z,101087.13
2023-03-02T17:41:10.720Z,101086.09
2023-03-02T17:43:40.772Z,101089.84
2023-03-02T17:46:20.870Z,101090.97
2023-03-02T17:48:52.498Z,101096.53
2023-03-02T17:51:23.282Z,101104.41
2023-03-02T17:53:52.690Z,101100.00
2023-03-02T17:56:25.519Z,101102.84
2023-03-02T17:58:58.717Z,101104.91
2023-03-02T18:01:27.940Z,101114.19
2023-03-02T18:03:56.153Z,101104.94
2023-03-02T18:06:24.624Z,101115.63
2023-03-02T18:08:53.227Z,101113.19
2023-03-02T18:11:24.395Z,101111.41
2023-03-02T18:13:56.606Z,101119.09
2023-03-02T18:16:26.280Z,101128.09
2023-03-02T18:18:54.360Z,101121.34
2023-03-02T18:21:23.205Z,101119.81
2023-03-02T18:23:51.300Z,101122.66
2023-03-02T18:26:19.920Z,101122.00
2023-03-02T18:28:48.194Z,101125.00
2023-03-02T18:31:18.194Z,101126.69
2023-03-02T18:33:46.352Z,101124.03
2023-03-02T18:36:14.457Z,101129.28
2023-03-02T18:38:42.695Z,101127.75
2023-03-02T18:41:13.445Z,101128.50
2023-03-02T18:43:43.118Z,101122.09
2023-03-02T18:46:23.244Z,101133.78
2023-03-02T18:48:51.979Z,101125.91
2023-03-02T18:51:21.288Z,101136.53
2023-03-02T18:53:51.052Z,101133.53
2023-03-02T18:56:19.624Z,101129.75
2023-03-02T18:58:48.622Z,101132.78
2023-03-02T19:01:16.855Z,101141.31
2023-03-02T19:03:49.088Z,101139.94
2023-03-02T19:06:18.062Z,101136.94
2023-03-02T19:08:46.012Z,101133.91
2023-03-02T19:11:13.985Z,101141.72
2023-03-02T19:13:41.620Z,101145.47
2023-03-02T19:16:09.659Z,101149.03
2023-03-02T19:18:38.884Z,101142.75
2023-03-02T19:21:07.176Z,101147.69
2023-03-02T19:23:35.269Z,101145.97
2023-03-02T19:26:04.877Z,101147.50
2023-03-02T19:28:35.124Z,101151.63
2023-03-02T19:31:06.847Z,101150.44
2023-03-02T19:33:35.241Z,101156.38
2023-03-02T19:36:03.594Z,101161.78
2023-03-02T19:38:31.983Z,101158.19
2023-03-02T19:41:02.132Z,101160.19
2023-03-02T19:43:30.315Z,101156.66
2023-03-02T19:45:58.475Z,101155.53
2023-03-02T19:48:26.625Z,101156.78
2023-03-02T19:50:54.224Z,101160.34
2023-03-02T19:53:22.477Z,101161.66
2023-03-02T19:55:52.625Z,101173.53
2023-03-02T19:58:23.670Z,101171.34
2023-03-02T20:00:51.726Z,101177.81
2023-03-02T20:03:19.914Z,101173.88
2023-03-02T20:05:47.936Z,101173.25
2023-03-02T20:08:16.944Z,101175.28
2023-03-02T20:10:46.630Z,101168.88
2023-03-02T20:13:14.188Z,101174.50
2023-03-02T20:15:44.940Z,101175.56
2023-03-02T20:18:17.361Z,101170.91
2023-03-02T20:20:45.671Z,101175.66
2023-03-02T20:23:14.906Z,101178.28
2023-03-02T20:25:42.956Z,101183.16
2023-03-02T20:28:13.397Z,101181.66
2023-03-02T20:30:48.824Z,101181.22
2023-03-02T20:33:18.007Z,101177.16
2023-03-02T20:35:48.589Z,101181.22
2023-03-02T20:38:22.752Z,101186.81
2023-03-02T20:40:51.233Z,101191.44
2023-03-02T20:43:19.750Z,101193.75
2023-03-02T20:45:47.978Z,101195.72
2023-03-02T20:48:16.228Z,101196.44
2023-03-02T20:50:44.272Z,101200.16
2023-03-02T20:53:13.839Z,101205.06
2023-03-02T20:55:42.152Z,101201.81
2023-03-02T20:58:10.705Z,101190.34
2023-03-02T21:00:39.523Z,101199.03
2023-03-02T21:03:09.207Z,101205.78
2023-03-02T21:05:40.380Z,101204.06
2023-03-02T21:08:14.854Z,101198.00
2023-03-02T21:10:43.714Z,101189.97
2023-03-02T21:13:11.933Z,101183.91
2023-03-02T21:15:41.106Z,101187.28
2023-03-02T21:18:09.265Z,101189.63
2023-03-02T21:20:39.126Z,101191.88
2023-03-02T21:23:07.087Z,101200.50
2023-03-02T21:25:35.190Z,101184.84
2023-03-02T21:28:03.189Z,101188.28
2023-03-02T21:30:33.992Z,101187.75
2023-03-02T21:33:02.698Z,101179.44
2023-03-02T21:35:31.371Z,101188.88
2023-03-02T21:38:04.366Z,101184.66
2023-03-02T21:40:43.110Z,101189.88
2023-03-02T21:43:11.119Z,101192.13
2023-03-02T21:45:40.277Z,101188.03
2023-03-02T21:48:09.351Z,101189.81
2023-03-02T21:50:39.664Z,101189.56
2023-03-02T21:53:09.890Z,101183.50
2023-03-02T21:55:38.089Z,101190.13
2023-03-02T21:58:06.300Z,101184.78
2023-03-02T22:00:37.139Z,101182.31
2023-03-02T22:03:05.607Z,101183.56
2023-03-02T22:05:34.569Z,101171.25
2023-03-02T22:08:02.169Z,101177.44
2023-03-02T22:10:32.594Z,101183.44
2023-03-02T22:13:17.668Z,101172.16
2023-03-02T22:15:46.810Z,101178.94
2023-03-02T22:18:19.860Z,101170.03
2023-03-02T22:20:50.045Z,101175.41
2023-03-02T22:23:21.920Z,101174.78
2023-03-02T22:25:52.420Z,101179.13
2023-03-02T22:28:23.046Z,101176.88
2023-03-02T22:30:53.606Z,101173.56
2023-03-02T22:33:27.822Z,101172.94
2023-03-02T22:36:12.116Z,101170.38
2023-03-02T22:38:39.632Z,101169.66
2023-03-02T22:41:16.858Z,101171.25
2023-03-02T22:43:45.849Z,101165.28
2023-03-02T22:46:20.714Z,101160.78
2023-03-02T22:48:53.339Z,101161.75
2023-03-02T22:51:23.937Z,101165.03
2023-03-02T22:53:52.520Z,101163.25
2023-03-02T22:56:26.450Z,101166.19
2023-03-02T22:58:56.105Z,101167.56
2023-03-02T23:01:29.461Z,101160.50
2023-03-02T23:04:14.113Z,101162.50
2023-03-02T23:06:46.469Z,101158.91
2023-03-02T23:09:24.145Z,101155.72
2023-03-02T23:11:56.206Z,101161.84
2023-03-02T23:14:27.304Z,101159.09
2023-03-02T23:17:00.231Z,101161.69
2023-03-02T23:19:31.293Z,101166.72
2023-03-02T23:21:59.225Z,101162.75
2023-03-02T23:24:27.296Z,101159.13
2023-03-02T23:26:55.825Z,101156.69
2023-03-02T23:29:24.353Z,101152.78
2023-03-02T23:31:52.272Z,101153.31
2023-03-02T23:34:20.164Z,101154.28
2023-03-02T23:36:48.152Z,101158.91
2023-03-02T23:39:15.811Z,101149.28
2023-03-02T23:41:43.831Z,101144.59
2023-03-02T23:44:11.489Z,101153.19
2023-03-02T23:46:39.958Z,101148.03
2023-03-02T23:49:07.870Z,101155.00
2023-03-02T23:51:35.945Z,101149.88
2023-03-02T23:54:04.843Z,101153.25
2023-03-02T23:56:32.995Z,101140.66
2023-03-02T23:59:02.471Z,101145.56
